Terminal Aerodrome Forecast
Issued by NWS

Home | Current Version | Previous Version | Text Only | Print | Product List | Glossary On
Versions: 1 2 3 4 5 6 7 8 9 10 11 12 13 14 15 16 17 18 19 20 21 22 23 24 25 26 27 28 29 30 31 32 33 34
000
FTUS46 KPQR 181924 AAA
TAFONP
TAF AMD
KONP 181924Z 1819/1918 19011G20KT 2SM -DZ BR OVC004
      TEMPO 1819/1822 1SM -DZ BR
     FM182200 17008KT 2SM BR SCT004 OVC007
     FM190500 18013KT 3SM -RA OVC008
     FM191300 20030G39KT 5SM RA BR SCT006 OVC011=

USA.gov is the U.S. government's official web portal to all federal, state and local government web resources and services.